Time;durP1;ratioP1;P1;durP2;ratioP2;P2;SDS_P1;SDS_P2;PMS_P1;PMS_P2;Temp;Humidity;BMP_temperature;BMP_pressure;BME280_temperature;BME280_humidity;BME280_pressure;Samples;Min_cycle;Max_cycle;Signal;HPM_P1;HPM_P2
2024/01/31 00:01:11;;;;;;;4.60;1.07;;;6.00;99.90;;;;;;5069876;28;20238;-83
2024/01/31 00:03:39;;;;;;;3.97;0.90;;;6.10;99.90;;;;;;5073406;28;20217;-84
2024/01/31 00:06:06;;;;;;;3.30;0.80;;;6.00;99.90;;;;;;5071287;28;20230;-82
2024/01/31 00:08:33;;;;;;;3.07;1.00;;;6.00;99.90;;;;;;5055682;28;20240;-82
2024/01/31 00:11:00;;;;;;;4.63;0.90;;;5.90;99.90;;;;;;5073244;28;20286;-82
2024/01/31 00:13:26;;;;;;;5.77;1.07;;;5.90;99.90;;;;;;5072220;28;20233;-83
2024/01/31 00:15:54;;;;;;;4.03;1.17;;;5.90;99.90;;;;;;5073080;28;20233;-82
2024/01/31 00:18:21;;;;;;;4.57;1.17;;;5.80;99.90;;;;;;5070067;28;20706;-83
2024/01/31 00:20:49;;;;;;;4.00;1.00;;;5.80;99.90;;;;;;5055041;28;20659;-83
2024/01/31 00:23:18;;;;;;;4.33;1.20;;;5.80;99.90;;;;;;5050151;28;20221;-82
2024/01/31 00:25:45;;;;;;;4.67;1.20;;;5.80;99.90;;;;;;5051295;28;20597;-81
2024/01/31 00:28:12;;;;;;;5.90;1.20;;;5.70;99.90;;;;;;5050289;28;20325;-81
2024/01/31 00:30:40;;;;;;;4.90;1.70;;;5.70;99.90;;;;;;5035861;28;20228;-82
2024/01/31 00:33:06;;;;;;;2.23;0.90;;;5.70;99.90;;;;;;5050259;28;20227;-83
2024/01/31 00:35:33;;;;;;;3.83;1.37;;;5.60;99.90;;;;;;5059112;28;20655;-82
2024/01/31 00:38:02;;;;;;;4.97;1.10;;;5.60;99.90;;;;;;5051094;28;20243;-82
2024/01/31 00:40:29;;;;;;;4.97;1.20;;;5.60;99.90;;;;;;5049846;28;20232;-83
2024/01/31 00:42:56;;;;;;;5.03;1.47;;;5.60;99.90;;;;;;5049563;28;20230;-83
2024/01/31 00:45:25;;;;;;;3.20;1.07;;;5.70;99.90;;;;;;5042870;28;20232;-84
2024/01/31 00:47:52;;;;;;;3.73;1.03;;;5.60;99.90;;;;;;5033407;28;20225;-84
2024/01/31 00:50:19;;;;;;;4.97;1.27;;;5.50;99.90;;;;;;5049957;28;20752;-84
2024/01/31 00:52:46;;;;;;;7.10;1.50;;;5.50;99.90;;;;;;5064234;28;20836;-83
2024/01/31 00:55:15;;;;;;;3.60;1.27;;;5.50;99.90;;;;;;5068814;28;20225;-83
2024/01/31 00:57:41;;;;;;;4.97;1.30;;;5.50;99.90;;;;;;5064353;28;20229;-83
2024/01/31 01:00:11;;;;;;;5.57;1.77;;;5.50;99.90;;;;;;5050250;28;20304;-84
2024/01/31 01:02:40;;;;;;;4.83;1.43;;;5.40;99.90;;;;;;5049497;28;20230;-84
2024/01/31 01:05:08;;;;;;;5.07;1.50;;;5.40;99.90;;;;;;5047523;28;20225;-83
2024/01/31 01:07:36;;;;;;;10.00;2.30;;;5.40;99.90;;;;;;5051617;28;20237;-81
2024/01/31 01:10:04;;;;;;;5.27;1.60;;;5.30;99.90;;;;;;5050224;28;20224;-82
2024/01/31 01:12:32;;;;;;;6.57;1.50;;;5.30;99.90;;;;;;5050409;28;20234;-82
2024/01/31 01:14:59;;;;;;;9.47;2.57;;;5.30;99.90;;;;;;5032613;28;20248;-82
2024/01/31 01:17:25;;;;;;;4.10;1.40;;;5.30;99.90;;;;;;5049579;28;20296;-81
2024/01/31 01:19:52;;;;;;;5.77;1.57;;;5.30;99.90;;;;;;5051236;28;20350;-82
2024/01/31 01:22:19;;;;;;;6.87;1.57;;;5.30;99.90;;;;;;5054626;28;20230;-82
2024/01/31 01:24:46;;;;;;;7.57;1.90;;;5.30;99.90;;;;;;5044538;28;20298;-83
2024/01/31 01:27:13;;;;;;;6.53;2.00;;;5.20;99.90;;;;;;5044261;28;20715;-83
2024/01/31 01:29:41;;;;;;;9.83;1.70;;;5.20;99.90;;;;;;5044153;28;20221;-83
2024/01/31 01:32:08;;;;;;;8.70;2.03;;;5.20;99.90;;;;;;5035694;28;20225;-83
2024/01/31 01:34:35;;;;;;;7.30;1.70;;;5.20;99.90;;;;;;5066726;28;20295;-83
2024/01/31 01:37:02;;;;;;;4.60;1.50;;;5.20;99.90;;;;;;5044900;28;20241;-82
2024/01/31 01:39:28;;;;;;;4.37;1.47;;;5.20;99.90;;;;;;5040185;28;20274;-82
2024/01/31 01:41:56;;;;;;;6.53;1.47;;;5.20;99.90;;;;;;5029711;28;20229;-82
2024/01/31 01:44:23;;;;;;;4.87;1.47;;;5.10;99.90;;;;;;5047007;28;20254;-83
2024/01/31 01:46:51;;;;;;;3.90;1.13;;;5.10;99.90;;;;;;5029533;28;20268;-83
2024/01/31 01:49:18;;;;;;;5.00;1.37;;;5.10;99.90;;;;;;5028469;28;20248;-83
2024/01/31 01:51:45;;;;;;;6.37;1.07;;;5.10;99.90;;;;;;5051966;28;20263;-83
2024/01/31 01:54:13;;;;;;;4.00;0.83;;;5.10;99.90;;;;;;5049894;28;20248;-82
2024/01/31 01:56:43;;;;;;;3.87;1.10;;;5.00;99.90;;;;;;5050342;28;20229;-81
2024/01/31 01:59:10;;;;;;;4.50;1.30;;;5.00;99.90;;;;;;5050190;28;20318;-82
2024/01/31 02:01:37;;;;;;;3.37;0.97;;;5.00;99.90;;;;;;5051412;28;20229;-82
2024/01/31 02:04:08;;;;;;;1.53;0.70;;;5.00;99.90;;;;;;5048282;28;20314;-82
2024/01/31 02:06:35;;;;;;;4.80;1.00;;;5.00;99.90;;;;;;5051645;28;20850;-82
2024/01/31 02:09:03;;;;;;;2.97;0.83;;;4.90;99.90;;;;;;5049576;28;20316;-82
2024/01/31 02:11:30;;;;;;;2.90;0.70;;;4.90;99.90;;;;;;5048807;28;20229;-82
2024/01/31 02:13:57;;;;;;;4.33;1.00;;;4.90;99.90;;;;;;5048714;28;20254;-81
2024/01/31 02:16:24;;;;;;;1.40;1.00;;;4.80;99.90;;;;;;5039976;28;20248;-82
2024/01/31 02:18:51;;;;;;;4.50;1.07;;;4.80;99.90;;;;;;5029725;28;20246;-82
2024/01/31 02:21:20;;;;;;;2.83;0.80;;;4.70;99.90;;;;;;5030689;28;20314;-82
2024/01/31 02:23:48;;;;;;;6.50;0.90;;;4.70;99.90;;;;;;5031883;28;20248;-82
2024/01/31 02:26:15;;;;;;;4.30;0.70;;;4.70;99.90;;;;;;5027255;28;20850;-83
2024/01/31 02:28:41;;;;;;;3.33;0.90;;;4.70;99.90;;;;;;5040125;28;20226;-83
2024/01/31 02:31:08;;;;;;;3.33;1.00;;;4.70;99.90;;;;;;5041430;28;20948;-82
2024/01/31 02:33:35;;;;;;;3.90;0.73;;;4.60;99.90;;;;;;5053708;28;20235;-83
2024/01/31 02:36:02;;;;;;;2.33;0.90;;;4.60;99.90;;;;;;5071640;28;20260;-82
2024/01/31 02:38:28;;;;;;;3.60;0.80;;;4.60;99.90;;;;;;5055214;28;20224;-82
2024/01/31 02:40:56;;;;;;;3.27;1.00;;;4.60;99.90;;;;;;5072991;28;20313;-82
2024/01/31 02:43:23;;;;;;;2.33;1.00;;;4.60;99.90;;;;;;5053163;28;20250;-82
2024/01/31 02:45:50;;;;;;;2.67;0.80;;;4.50;99.90;;;;;;5059089;28;20229;-82
2024/01/31 02:48:16;;;;;;;4.50;1.13;;;4.50;99.90;;;;;;5021659;28;20225;-81
2024/01/31 02:50:43;;;;;;;4.50;1.50;;;4.50;99.90;;;;;;5050633;28;20245;-82
2024/01/31 02:53:10;;;;;;;3.17;1.00;;;4.50;99.90;;;;;;5034388;28;20675;-83
2024/01/31 02:55:37;;;;;;;7.07;0.93;;;4.50;99.90;;;;;;5051719;28;20231;-82
2024/01/31 02:58:05;;;;;;;2.07;0.67;;;4.50;99.90;;;;;;5052670;28;20295;-82
2024/01/31 03:00:32;;;;;;;3.30;0.73;;;4.50;99.90;;;;;;5046753;28;20340;-82
2024/01/31 03:02:58;;;;;;;4.13;0.90;;;4.50;99.90;;;;;;5029107;28;20245;-82
2024/01/31 03:05:25;;;;;;;4.23;0.83;;;4.50;99.90;;;;;;5033409;28;20745;-83
2024/01/31 03:07:52;;;;;;;2.40;0.70;;;4.50;99.90;;;;;;5022259;28;20331;-83
2024/01/31 03:10:18;;;;;;;7.20;1.20;;;4.50;99.90;;;;;;5043854;28;20226;-83
2024/01/31 03:12:45;;;;;;;4.90;1.10;;;4.50;99.90;;;;;;5036261;28;21033;-83
2024/01/31 03:15:13;;;;;;;3.10;0.93;;;4.50;99.90;;;;;;5035529;28;20245;-83
2024/01/31 03:17:40;;;;;;;4.83;1.50;;;4.50;99.90;;;;;;5038880;28;20308;-83
2024/01/31 03:20:08;;;;;;;7.30;1.10;;;4.50;99.90;;;;;;5023071;28;20313;-82
2024/01/31 03:22:35;;;;;;;3.97;1.10;;;4.50;99.90;;;;;;5049533;28;20233;-82
2024/01/31 03:25:01;;;;;;;6.33;1.67;;;4.50;99.90;;;;;;5037632;28;20765;-81
2024/01/31 03:27:27;;;;;;;5.77;0.90;;;4.50;99.90;;;;;;5031713;28;20226;-83
2024/01/31 03:29:54;;;;;;;5.23;1.10;;;4.50;99.90;;;;;;5033494;28;20317;-84
2024/01/31 03:32:22;;;;;;;4.40;1.07;;;4.50;99.90;;;;;;5038297;28;20226;-84
2024/01/31 03:34:49;;;;;;;4.73;1.30;;;4.40;99.90;;;;;;5025388;28;20263;-83
2024/01/31 03:37:16;;;;;;;3.97;1.07;;;4.40;99.90;;;;;;5037930;28;20579;-85
2024/01/31 03:39:43;;;;;;;3.77;1.23;;;4.40;99.90;;;;;;5034749;28;20226;-84
2024/01/31 03:42:10;;;;;;;5.63;1.67;;;4.40;99.90;;;;;;5038639;28;20221;-84
2024/01/31 03:44:37;;;;;;;5.53;2.17;;;4.40;99.90;;;;;;5034941;28;20699;-84
2024/01/31 03:47:04;;;;;;;5.60;1.23;;;4.40;99.90;;;;;;5029461;28;20217;-85
2024/01/31 03:49:33;;;;;;;5.37;1.23;;;4.30;99.90;;;;;;5038854;28;20231;-85
2024/01/31 03:52:00;;;;;;;8.80;1.20;;;4.30;99.90;;;;;;5031871;28;20220;-85
2024/01/31 03:54:27;;;;;;;6.00;1.10;;;4.40;99.90;;;;;;5038506;28;20854;-85
2024/01/31 03:56:54;;;;;;;4.40;1.10;;;4.30;99.90;;;;;;5014313;28;21104;-84
2024/01/31 03:59:20;;;;;;;9.70;1.40;;;4.30;99.90;;;;;;5031753;28;20265;-84
2024/01/31 04:01:50;;;;;;;5.20;1.47;;;4.30;99.90;;;;;;5029373;28;20319;-84
2024/01/31 04:04:17;;;;;;;5.07;1.47;;;4.30;99.90;;;;;;5045810;28;20212;-84
2024/01/31 04:06:45;;;;;;;6.07;1.60;;;4.30;99.90;;;;;;5028184;28;20245;-84
2024/01/31 04:09:13;;;;;;;7.53;1.77;;;4.30;99.90;;;;;;5037428;28;20220;-83
2024/01/31 04:11:40;;;;;;;7.23;1.50;;;4.30;99.90;;;;;;5037798;28;20238;-84
2024/01/31 04:14:06;;;;;;;4.87;1.13;;;4.30;99.90;;;;;;5031325;28;20316;-83
2024/01/31 04:16:33;;;;;;;3.07;1.20;;;4.30;99.90;;;;;;5026790;28;20234;-85
2024/01/31 04:19:00;;;;;;;8.00;1.50;;;4.30;99.90;;;;;;5010977;28;20222;-85
2024/01/31 04:21:27;;;;;;;6.07;1.43;;;4.30;99.90;;;;;;5026890;28;20223;-84
2024/01/31 04:23:55;;;;;;;7.67;1.50;;;4.30;99.90;;;;;;5029982;28;20228;-84
2024/01/31 04:26:21;;;;;;;8.93;1.77;;;4.30;99.90;;;;;;5036146;28;20727;-82
2024/01/31 04:28:48;;;;;;;6.27;1.90;;;4.30;99.90;;;;;;5030205;28;20247;-83
2024/01/31 04:31:15;;;;;;;6.17;1.70;;;4.40;99.90;;;;;;5027087;28;20229;-83
2024/01/31 04:33:43;;;;;;;9.87;2.40;;;4.40;99.90;;;;;;5025938;28;20233;-83
2024/01/31 04:36:10;;;;;;;8.87;1.93;;;4.30;99.90;;;;;;5027314;28;20300;-84
2024/01/31 04:38:37;;;;;;;6.13;1.30;;;4.30;99.90;;;;;;5036342;28;20230;-83
2024/01/31 04:41:05;;;;;;;5.03;1.37;;;4.30;99.90;;;;;;5027856;28;20232;-84
2024/01/31 04:43:32;;;;;;;10.43;1.73;;;4.30;99.90;;;;;;5018951;28;20226;-85
2024/01/31 04:46:00;;;;;;;7.17;1.60;;;4.30;99.90;;;;;;5032127;28;20222;-84
2024/01/31 04:48:27;;;;;;;7.03;1.57;;;4.30;99.90;;;;;;5035935;28;20226;-84
2024/01/31 04:50:54;;;;;;;7.53;1.53;;;4.30;99.90;;;;;;5030387;28;20215;-85
2024/01/31 04:53:21;;;;;;;6.43;1.60;;;4.30;99.90;;;;;;5031789;28;20225;-84
2024/01/31 04:55:48;;;;;;;12.20;2.00;;;4.30;99.90;;;;;;5033794;28;20219;-84
2024/01/31 04:58:16;;;;;;;9.30;2.00;;;4.30;99.90;;;;;;5021559;28;20223;-84
2024/01/31 05:00:43;;;;;;;7.17;2.03;;;4.30;99.90;;;;;;5026428;28;20230;-83
2024/01/31 05:03:11;;;;;;;7.70;2.00;;;4.30;99.90;;;;;;5030365;28;20234;-81
2024/01/31 05:05:38;;;;;;;5.57;1.63;;;4.30;99.90;;;;;;5032847;28;20346;-82
2024/01/31 05:08:06;;;;;;;9.57;1.63;;;4.30;99.90;;;;;;5029877;28;20268;-81
2024/01/31 05:10:34;;;;;;;6.80;1.60;;;4.30;99.90;;;;;;5027193;28;20704;-84
2024/01/31 05:13:01;;;;;;;5.63;1.50;;;4.30;99.90;;;;;;5032270;28;20228;-84
2024/01/31 05:15:31;;;;;;;6.87;1.37;;;4.40;99.90;;;;;;5028202;28;20228;-84
2024/01/31 05:17:59;;;;;;;9.00;1.83;;;4.40;99.90;;;;;;5025324;28;20259;-85
2024/01/31 05:20:26;;;;;;;8.00;1.50;;;4.40;99.90;;;;;;5031799;28;20292;-84
2024/01/31 05:22:52;;;;;;;7.77;1.60;;;4.40;99.90;;;;;;5021702;28;20253;-85
2024/01/31 05:25:19;;;;;;;7.70;1.70;;;4.40;99.90;;;;;;5031332;28;20915;-84
2024/01/31 05:27:46;;;;;;;9.70;2.07;;;4.40;99.90;;;;;;5031398;28;20219;-84
2024/01/31 05:30:13;;;;;;;6.73;1.70;;;4.40;99.90;;;;;;5029902;28;20233;-83
2024/01/31 05:32:42;;;;;;;7.80;1.37;;;4.40;99.90;;;;;;5030546;28;20347;-84
2024/01/31 05:35:09;;;;;;;5.90;1.53;;;4.40;99.90;;;;;;5034173;28;20232;-84
2024/01/31 05:37:35;;;;;;;6.83;1.97;;;4.40;99.90;;;;;;5031765;28;20306;-84
2024/01/31 05:40:03;;;;;;;10.40;2.10;;;4.50;99.90;;;;;;5028757;28;20272;-84
2024/01/31 05:42:30;;;;;;;7.83;2.00;;;4.50;99.90;;;;;;5021161;28;20224;-84
2024/01/31 05:44:57;;;;;;;7.47;1.90;;;4.50;99.90;;;;;;5030326;28;20348;-84
2024/01/31 05:47:24;;;;;;;6.90;1.93;;;4.50;99.90;;;;;;5030223;28;20230;-84
2024/01/31 05:49:52;;;;;;;11.30;2.00;;;4.50;99.90;;;;;;5032579;28;20216;-86
2024/01/31 05:52:19;;;;;;;8.53;1.83;;;4.50;99.90;;;;;;5029473;28;20649;-85
2024/01/31 05:54:46;;;;;;;8.50;1.50;;;4.50;99.90;;;;;;5029317;28;20265;-85
2024/01/31 05:57:12;;;;;;;7.20;1.77;;;4.50;99.90;;;;;;5033212;28;20912;-83
2024/01/31 05:59:41;;;;;;;8.63;1.80;;;4.50;99.90;;;;;;5032561;28;20300;-84
2024/01/31 06:02:08;;;;;;;7.93;2.10;;;4.50;99.90;;;;;;5028242;28;20215;-83
2024/01/31 06:04:35;;;;;;;7.43;1.70;;;4.50;99.90;;;;;;5034010;28;20242;-87
2024/01/31 06:07:03;;;;;;;5.43;1.37;;;4.50;99.90;;;;;;5038702;28;20338;-85
2024/01/31 06:09:30;;;;;;;9.67;1.80;;;4.50;99.90;;;;;;5035533;28;20312;-86
2024/01/31 06:11:56;;;;;;;14.67;1.80;;;4.50;99.90;;;;;;5034948;28;20885;-84
2024/01/31 06:14:23;;;;;;;8.23;1.83;;;4.50;99.90;;;;;;5040327;28;20346;-84
2024/01/31 06:16:50;;;;;;;8.03;1.87;;;4.50;99.90;;;;;;5037699;28;20646;-84
2024/01/31 06:19:17;;;;;;;10.10;1.53;;;4.50;99.90;;;;;;5033621;28;20254;-84
2024/01/31 06:21:44;;;;;;;8.50;2.07;;;4.60;99.90;;;;;;5030896;28;20306;-86
2024/01/31 06:24:12;;;;;;;8.73;1.73;;;4.50;99.90;;;;;;5043002;28;20944;-85
2024/01/31 06:26:40;;;;;;;4.10;1.50;;;4.60;99.90;;;;;;5036309;28;20723;-84
2024/01/31 06:29:07;;;;;;;6.30;1.80;;;4.60;99.90;;;;;;5042255;28;20313;-84
2024/01/31 06:31:40;;;;;;;6.47;1.87;;;4.60;99.90;;;;;;5042802;28;20241;-84
2024/01/31 06:34:07;;;;;;;7.37;1.50;;;4.60;99.90;;;;;;5044329;28;20220;-84
2024/01/31 06:36:34;;;;;;;11.83;1.77;;;4.60;99.90;;;;;;5037486;28;20239;-85
2024/01/31 06:39:01;;;;;;;8.23;1.63;;;4.60;99.90;;;;;;5043098;28;20225;-85
2024/01/31 06:41:29;;;;;;;9.70;1.70;;;4.60;99.90;;;;;;5045009;28;21899;-84
2024/01/31 06:43:56;;;;;;;7.17;1.60;;;4.60;99.90;;;;;;5038190;28;20312;-84
2024/01/31 06:46:23;;;;;;;9.43;1.33;;;4.70;99.90;;;;;;5044872;28;21683;-84
2024/01/31 06:48:50;;;;;;;7.03;1.47;;;4.70;99.90;;;;;;5037280;28;20883;-84
2024/01/31 06:51:17;;;;;;;11.60;2.17;;;4.70;99.90;;;;;;5040612;28;20321;-84
2024/01/31 06:53:45;;;;;;;8.77;2.30;;;4.70;99.90;;;;;;5048532;28;20241;-84
2024/01/31 06:56:16;;;;;;;5.57;1.70;;;4.70;99.90;;;;;;5043202;28;20232;-84
2024/01/31 06:58:45;;;;;;;6.10;1.83;;;4.70;99.90;;;;;;5039043;28;20243;-83
2024/01/31 07:01:15;;;;;;;7.70;1.40;;;4.70;99.90;;;;;;5040631;28;20238;-85
2024/01/31 07:03:42;;;;;;;11.60;2.60;;;4.70;99.90;;;;;;5035524;28;20245;-85
2024/01/31 07:06:10;;;;;;;5.93;1.40;;;4.70;99.90;;;;;;5049314;28;20225;-85
2024/01/31 07:08:37;;;;;;;9.33;1.90;;;4.70;99.90;;;;;;5038649;28;20309;-83
2024/01/31 07:11:07;;;;;;;8.50;1.53;;;4.70;99.90;;;;;;5044330;28;20266;-85
2024/01/31 07:13:34;;;;;;;8.90;2.03;;;4.70;99.90;;;;;;5042961;28;20233;-85
2024/01/31 07:16:04;;;;;;;6.83;1.40;;;4.70;99.90;;;;;;5048035;28;20226;-83
2024/01/31 07:18:31;;;;;;;6.63;1.90;;;4.80;99.90;;;;;;5037145;28;20231;-84
2024/01/31 07:20:57;;;;;;;7.07;1.63;;;4.80;99.90;;;;;;5041774;28;20238;-84
2024/01/31 07:23:24;;;;;;;7.30;1.90;;;4.80;99.90;;;;;;5045569;28;20925;-84
2024/01/31 07:25:51;;;;;;;7.47;1.47;;;4.80;99.90;;;;;;5043632;28;20662;-83
2024/01/31 07:28:19;;;;;;;6.70;1.73;;;4.70;99.90;;;;;;5042766;28;20284;-84
2024/01/31 07:30:46;;;;;;;8.17;1.73;;;4.80;99.90;;;;;;5048009;28;20229;-84
2024/01/31 07:33:14;;;;;;;3.93;1.80;;;4.80;99.90;;;;;;5034907;28;20292;-83
2024/01/31 07:35:41;;;;;;;7.63;1.70;;;4.80;99.90;;;;;;5040683;28;20261;-83
2024/01/31 07:38:07;;;;;;;7.63;1.60;;;4.80;99.90;;;;;;5052648;28;20235;-84
2024/01/31 07:40:34;;;;;;;7.10;1.70;;;4.80;99.90;;;;;;5052150;28;20309;-83
2024/01/31 07:43:01;;;;;;;10.97;2.27;;;4.80;99.90;;;;;;5039455;28;20245;-84
2024/01/31 07:45:28;;;;;;;9.53;1.87;;;4.80;99.90;;;;;;5043710;28;20227;-84
2024/01/31 07:47:56;;;;;;;5.30;1.60;;;4.80;99.90;;;;;;5044549;28;20230;-83
2024/01/31 07:50:24;;;;;;;8.57;1.80;;;4.80;99.90;;;;;;5045990;28;20233;-84
2024/01/31 07:52:51;;;;;;;5.63;1.40;;;4.80;99.90;;;;;;5043365;28;20229;-85
2024/01/31 07:55:17;;;;;;;6.50;1.80;;;4.80;99.90;;;;;;5052728;28;20316;-84
2024/01/31 07:57:44;;;;;;;7.93;1.90;;;4.80;99.90;;;;;;5038543;28;20297;-83
2024/01/31 08:00:12;;;;;;;6.30;1.43;;;4.80;99.90;;;;;;5033497;28;20233;-85
2024/01/31 08:02:39;;;;;;;8.33;1.47;;;4.90;99.90;;;;;;5038854;28;20230;-84
2024/01/31 08:05:07;;;;;;;12.97;2.30;;;4.80;99.90;;;;;;5042488;28;20255;-83
2024/01/31 08:07:35;;;;;;;10.03;2.30;;;4.90;99.90;;;;;;5033477;28;20524;-85
2024/01/31 08:10:02;;;;;;;10.23;2.40;;;4.90;99.90;;;;;;5047353;28;20244;-85
2024/01/31 08:12:28;;;;;;;8.03;1.60;;;5.00;99.90;;;;;;5036449;28;20226;-83
2024/01/31 08:14:55;;;;;;;8.77;1.93;;;5.00;99.90;;;;;;5044719;28;20270;-85
2024/01/31 08:17:22;;;;;;;9.00;2.13;;;5.00;99.90;;;;;;5040431;28;20280;-84
2024/01/31 08:19:49;;;;;;;7.50;1.20;;;5.00;99.90;;;;;;5040215;28;20304;-83
2024/01/31 08:22:16;;;;;;;13.97;1.80;;;5.00;99.90;;;;;;5049269;28;20230;-83
2024/01/31 08:24:44;;;;;;;7.47;1.83;;;5.00;99.90;;;;;;5042659;28;20811;-84
2024/01/31 08:27:10;;;;;;;6.07;1.70;;;5.10;99.90;;;;;;5046464;28;20261;-83
2024/01/31 08:29:38;;;;;;;7.97;1.80;;;5.10;99.90;;;;;;5027681;28;20260;-83
2024/01/31 08:32:05;;;;;;;7.43;1.70;;;5.10;99.90;;;;;;5042967;28;20251;-84
2024/01/31 08:34:32;;;;;;;5.30;1.33;;;5.10;99.90;;;;;;5039289;28;20305;-83
2024/01/31 08:36:58;;;;;;;4.77;1.40;;;5.10;99.90;;;;;;5035532;28;20244;-84
2024/01/31 08:39:25;;;;;;;5.43;1.33;;;5.20;99.90;;;;;;5041728;28;20878;-84
2024/01/31 08:41:53;;;;;;;7.77;1.93;;;5.20;99.90;;;;;;5039409;28;20323;-84
2024/01/31 08:44:20;;;;;;;7.80;1.50;;;5.20;99.90;;;;;;5019882;28;20228;-84
2024/01/31 08:46:47;;;;;;;7.00;1.50;;;5.30;99.90;;;;;;5027317;28;20230;-83
2024/01/31 08:49:13;;;;;;;8.00;1.90;;;5.20;99.90;;;;;;5037280;28;20671;-83
2024/01/31 08:51:40;;;;;;;6.67;1.63;;;5.30;99.90;;;;;;5043939;28;20246;-84
2024/01/31 08:54:07;;;;;;;7.90;1.70;;;5.30;99.90;;;;;;5032820;28;20237;-83
2024/01/31 08:56:34;;;;;;;8.57;1.60;;;5.30;99.90;;;;;;5034312;28;20260;-83
2024/01/31 08:59:02;;;;;;;8.80;1.87;;;5.30;99.90;;;;;;5034437;28;20730;-83
2024/01/31 09:01:29;;;;;;;6.40;1.73;;;5.30;99.90;;;;;;5042091;28;20264;-83
2024/01/31 09:03:56;;;;;;;7.83;1.80;;;5.30;99.90;;;;;;5035413;28;21116;-83
2024/01/31 09:06:23;;;;;;;7.97;2.03;;;5.30;99.90;;;;;;5048030;28;20873;-83
2024/01/31 09:08:50;;;;;;;9.63;1.80;;;5.30;99.90;;;;;;5036298;28;20240;-85
2024/01/31 09:11:18;;;;;;;7.53;1.77;;;5.40;99.90;;;;;;5045917;28;20223;-83
2024/01/31 09:13:44;;;;;;;8.50;1.53;;;5.40;99.90;;;;;;5041628;28;20237;-84
2024/01/31 09:16:12;;;;;;;8.77;1.70;;;5.40;99.90;;;;;;5040928;28;20314;-85
2024/01/31 09:18:40;;;;;;;6.43;1.20;;;5.40;99.90;;;;;;5029719;28;20712;-83
2024/01/31 09:21:07;;;;;;;9.00;2.33;;;5.40;99.90;;;;;;5033489;28;20285;-83
2024/01/31 09:23:34;;;;;;;10.73;1.80;;;5.50;99.90;;;;;;5024698;28;20276;-83
2024/01/31 09:26:02;;;;;;;6.57;1.53;;;5.50;99.90;;;;;;5040294;28;20327;-85
2024/01/31 09:28:28;;;;;;;8.37;1.57;;;5.50;99.90;;;;;;5033794;28;20232;-83
2024/01/31 09:30:55;;;;;;;6.93;1.53;;;5.60;99.90;;;;;;5039224;28;20229;-84
2024/01/31 09:33:23;;;;;;;6.37;1.50;;;5.60;99.90;;;;;;5039583;28;20225;-85
2024/01/31 09:35:51;;;;;;;7.40;1.60;;;5.60;99.90;;;;;;5045289;28;20229;-83
2024/01/31 09:38:18;;;;;;;7.73;1.90;;;5.70;99.90;;;;;;5044636;28;20230;-84
2024/01/31 09:40:45;;;;;;;9.67;1.90;;;5.70;99.90;;;;;;5050439;28;20236;-83
2024/01/31 09:43:12;;;;;;;7.90;1.80;;;5.70;99.90;;;;;;5041682;28;20234;-83
2024/01/31 09:45:40;;;;;;;5.60;1.90;;;5.70;99.90;;;;;;5045731;28;20797;-84
2024/01/31 09:48:09;;;;;;;6.87;1.60;;;5.70;99.90;;;;;;5039521;28;20221;-83
2024/01/31 09:50:37;;;;;;;8.00;1.70;;;5.70;99.90;;;;;;5037139;28;20250;-83
2024/01/31 09:53:05;;;;;;;7.17;1.47;;;5.70;99.90;;;;;;5059338;28;20317;-85
2024/01/31 09:55:34;;;;;;;7.67;1.50;;;5.80;99.90;;;;;;5042474;28;20245;-83
2024/01/31 09:58:02;;;;;;;7.63;1.90;;;5.80;99.90;;;;;;5054180;28;20597;-83
2024/01/31 10:00:29;;;;;;;7.33;1.70;;;5.70;99.90;;;;;;5039639;28;20248;-84
2024/01/31 10:02:56;;;;;;;11.13;2.27;;;5.70;99.90;;;;;;5040287;28;20237;-83
2024/01/31 10:05:22;;;;;;;7.40;1.50;;;5.80;99.90;;;;;;5038331;28;20812;-84
2024/01/31 10:07:51;;;;;;;7.93;2.17;;;5.80;99.90;;;;;;5041157;28;20630;-83
2024/01/31 10:10:17;;;;;;;7.83;2.07;;;5.90;99.90;;;;;;5042498;28;20230;-84
2024/01/31 10:12:44;;;;;;;7.90;1.77;;;6.00;99.90;;;;;;5046506;28;20465;-83
2024/01/31 10:15:11;;;;;;;7.80;1.63;;;6.00;99.90;;;;;;5038739;28;20238;-84
2024/01/31 10:17:38;;;;;;;8.53;1.50;;;6.10;99.90;;;;;;5035774;28;20234;-84
2024/01/31 10:20:10;;;;;;;7.47;1.50;;;6.20;99.90;;;;;;5032759;28;20327;-83
2024/01/31 10:22:37;;;;;;;6.13;1.50;;;6.30;99.90;;;;;;5033121;28;20247;-83
2024/01/31 10:25:07;;;;;;;7.20;1.87;;;6.40;99.90;;;;;;5041102;28;20231;-85
2024/01/31 10:27:36;;;;;;;8.57;1.70;;;6.40;99.90;;;;;;5035929;28;20589;-83
2024/01/31 10:30:06;;;;;;;8.77;1.50;;;6.50;99.90;;;;;;5036839;28;20314;-83
2024/01/31 10:32:34;;;;;;;4.43;1.40;;;6.40;99.90;;;;;;5041223;28;20233;-84
2024/01/31 10:35:03;;;;;;;10.07;2.10;;;6.40;99.90;;;;;;5041835;28;20229;-83
2024/01/31 10:37:31;;;;;;;9.00;1.47;;;6.40;99.90;;;;;;5038603;28;20685;-84
2024/01/31 10:39:59;;;;;;;5.63;1.60;;;6.40;99.90;;;;;;5045278;28;20273;-84
2024/01/31 10:42:27;;;;;;;7.43;1.63;;;6.30;99.90;;;;;;5048318;28;21016;-83
2024/01/31 10:44:55;;;;;;;6.83;1.70;;;6.30;99.90;;;;;;5023636;28;20225;-83
2024/01/31 10:47:22;;;;;;;8.13;1.60;;;6.30;99.90;;;;;;5032109;28;20246;-84
2024/01/31 10:49:48;;;;;;;5.97;1.43;;;6.30;99.90;;;;;;5052163;28;20222;-83
2024/01/31 10:52:19;;;;;;;8.40;1.60;;;6.20;99.90;;;;;;5052167;28;20223;-83
2024/01/31 10:54:52;;;;;;;8.83;2.10;;;6.20;99.90;;;;;;5046718;28;20353;-82
2024/01/31 10:57:20;;;;;;;6.73;1.67;;;6.20;99.90;;;;;;5036453;28;20262;-83
2024/01/31 10:59:50;;;;;;;4.80;1.37;;;6.30;99.90;;;;;;5039770;28;20234;-83
2024/01/31 11:02:17;;;;;;;7.37;1.80;;;6.30;99.90;;;;;;5042198;28;20232;-83
2024/01/31 11:04:45;;;;;;;7.67;1.47;;;6.30;99.90;;;;;;5026502;28;20248;-84
2024/01/31 11:07:20;;;;;;;7.10;1.43;;;6.30;99.90;;;;;;5034743;28;20257;-84
2024/01/31 11:09:47;;;;;;;6.13;1.50;;;6.30;99.90;;;;;;5037585;28;20300;-83
2024/01/31 11:12:17;;;;;;;10.17;1.70;;;6.30;99.90;;;;;;5037023;28;20310;-83
2024/01/31 11:14:44;;;;;;;7.40;1.37;;;6.30;99.90;;;;;;5044296;28;20236;-83
2024/01/31 11:17:19;;;;;;;5.10;1.10;;;6.30;99.90;;;;;;5036117;28;20239;-83
2024/01/31 11:19:50;;;;;;;4.67;1.20;;;6.30;99.90;;;;;;5035882;28;20309;-82
2024/01/31 11:22:17;;;;;;;6.77;1.50;;;6.30;99.90;;;;;;5036878;28;20253;-83
2024/01/31 11:24:45;;;;;;;7.87;1.90;;;6.30;99.90;;;;;;5036935;28;20287;-83
2024/01/31 11:27:13;;;;;;;8.97;1.60;;;6.30;99.90;;;;;;5035884;28;20308;-83
2024/01/31 11:29:42;;;;;;;5.23;1.33;;;6.30;99.90;;;;;;5043579;28;20866;-83
2024/01/31 11:32:10;;;;;;;5.33;1.20;;;6.30;99.90;;;;;;5032875;28;20247;-83
2024/01/31 11:34:38;;;;;;;2.73;1.07;;;6.30;99.90;;;;;;5031040;28;20232;-82
2024/01/31 11:37:05;;;;;;;4.27;1.20;;;6.30;99.90;;;;;;5016780;28;20720;-83
2024/01/31 11:39:32;;;;;;;5.40;1.20;;;6.30;99.90;;;;;;5041771;28;20232;-83
2024/01/31 11:41:59;;;;;;;3.80;1.23;;;6.30;99.90;;;;;;5034251;28;20238;-83
2024/01/31 11:44:26;;;;;;;3.43;1.30;;;6.20;99.90;;;;;;5037064;28;20750;-83
2024/01/31 11:46:53;;;;;;;4.37;1.20;;;6.20;99.90;;;;;;5044624;28;20741;-83
2024/01/31 11:49:19;;;;;;;5.17;1.10;;;6.20;99.90;;;;;;5035786;28;20304;-83
2024/01/31 11:51:48;;;;;;;4.40;1.10;;;6.20;99.90;;;;;;5043671;28;20284;-83
2024/01/31 11:54:14;;;;;;;3.33;1.20;;;6.10;99.90;;;;;;5041699;28;20286;-83
2024/01/31 11:56:41;;;;;;;6.87;1.60;;;6.10;99.90;;;;;;5037743;28;20910;-83
2024/01/31 11:59:08;;;;;;;3.63;1.00;;;6.10;99.90;;;;;;5035184;28;20253;-84
2024/01/31 12:01:35;;;;;;;5.73;0.97;;;6.00;99.90;;;;;;5027050;28;20246;-83
2024/01/31 12:04:02;;;;;;;2.13;1.03;;;6.00;99.90;;;;;;5035457;28;20285;-83
2024/01/31 12:06:30;;;;;;;3.33;1.10;;;6.00;99.90;;;;;;5054727;28;20252;-83
2024/01/31 12:08:59;;;;;;;4.03;0.90;;;6.00;99.90;;;;;;5044222;28;20608;-83
2024/01/31 12:11:26;;;;;;;4.73;1.17;;;5.90;99.90;;;;;;5034455;28;20230;-83
2024/01/31 12:13:52;;;;;;;4.10;1.30;;;6.00;99.90;;;;;;5045919;28;20226;-82
2024/01/31 12:16:19;;;;;;;4.17;1.50;;;6.00;99.90;;;;;;5023372;28;20799;-84
2024/01/31 12:18:46;;;;;;;3.83;1.60;;;6.00;99.90;;;;;;5032853;28;20692;-83
2024/01/31 12:21:13;;;;;;;3.30;1.50;;;6.00;99.90;;;;;;5028666;28;20623;-83
2024/01/31 12:23:39;;;;;;;6.37;2.07;;;5.90;99.90;;;;;;5046153;28;20246;-83
2024/01/31 12:26:07;;;;;;;3.37;1.97;;;5.90;99.90;;;;;;5044567;28;20307;-83
2024/01/31 12:28:34;;;;;;;4.33;1.80;;;5.90;99.90;;;;;;5035617;28;20225;-83
2024/01/31 12:31:01;;;;;;;2.57;1.43;;;6.00;99.90;;;;;;5038453;28;20218;-83
2024/01/31 12:33:27;;;;;;;6.63;2.13;;;6.00;99.90;;;;;;5029772;28;20232;-83
2024/01/31 12:35:54;;;;;;;6.10;1.83;;;5.90;99.90;;;;;;5041228;28;20789;-83
2024/01/31 12:38:21;;;;;;;3.87;1.80;;;5.90;99.90;;;;;;5041998;28;20303;-83
2024/01/31 12:40:48;;;;;;;4.17;1.70;;;5.90;99.90;;;;;;5047175;28;20289;-83
2024/01/31 12:43:16;;;;;;;3.43;1.80;;;5.90;99.90;;;;;;5037023;28;20240;-83
2024/01/31 12:45:42;;;;;;;4.67;1.40;;;5.90;99.90;;;;;;5038146;28;20283;-83
2024/01/31 12:48:09;;;;;;;4.37;1.23;;;5.90;99.90;;;;;;5032354;28;20285;-83
2024/01/31 12:50:36;;;;;;;4.17;1.10;;;5.90;99.90;;;;;;5037793;28;20291;-83
2024/01/31 12:53:03;;;;;;;3.17;1.40;;;5.90;99.90;;;;;;5040253;28;20226;-83
2024/01/31 12:55:29;;;;;;;4.67;1.57;;;5.90;99.90;;;;;;5044618;28;20248;-84